Lake Cumberland Regional Airport
KSME : rendu visible

Aérodrome :











RETROUVEZ-NOUS SUR...

 
LOGIN :

S'inscrire | Disclaimer

   EN    FR    IT 

 









Légende :    VFR   VFR Marginal   IFR   IFR Intensif   IFR Très Intensif
Visi : 
Plafond : 
>= 8 km
>= 3000ft
5 à 8 km
1000 à 3000 ft
1500m à 5 km
500 à 1000 ft
800 à 1500m
200 à 500 ft
< 800m
< 200 ft
Symboles :   Orages  Brouillard  Fortes neiges  Fortes précipitations  Vent > 20 kt






- Altitude de l'aérodrome : 927 ft


KSME - Lake Cumberland Regional

DERNIER METAR :
  • 190635Z AUTO 26008KT 10SM CLR 01/M06 A3014 RMK AO2

METARs EXPIRÉS :
  • 190615Z AUTO 25012KT 10SM CLR 01/M06 A3013 RMK AO2
  • 190555Z AUTO 25018G23KT 10SM CLR 02/M06 A3013 RMK AO2
  • 190535Z AUTO 25014G26KT 10SM CLR 02/M05 A3012 RMK AO2
  • 190515Z AUTO 26014G20KT 10SM CLR 03/M02 A3011 RMK AO2
  • 190455Z AUTO 24013G19KT 10SM CLR 03/M02 A3010 RMK AO2
  • 190435Z AUTO 26012G17KT 10SM CLR 04/M01 A3010 RMK AO2
  • 190415Z AUTO 25007KT 10SM CLR 05/00 A3009 RMK AO2
  • 190355Z AUTO 26010G17KT 10SM SCT024 05/00 A3008 RMK AO2

TAF KSME
Valide du 19 à 06h jusqu'au 20 à 06h UTC


190520Z 1906/2006 26012G17KT P6SM SKC
FM190700 28011G20KT P6SM BKN021
FM191400 28009KT P6SM BKN019
FM191600 28009KT P6SM SCT026



MET'MAP, la Météo Aéronautique d'un coup d'oeil ! - Copyright ORBIFLY Décembre 2007 - Disclaimer

ORBIFLY MET'MAP TEAM :

Programmation & Développement : Alexandra Zaïnal
Sur une idée originale de : Baudouin d'Aumeries
Assistance à la programmation : Marc-Olivier Méhu
Soutien technique & logistique : Manuel Goepfert

Contact : metmap@orbifly.com




SOURCES & CREDITS :

   NOAA       Earth
Advisory